Terminal Aerodrome Forecast
Issued by NWS Sioux Falls, SD

Home | Current Version | Previous Version | Graphics & Text | Print | Product List | Glossary On
Versions: 1 2 3 4 5 6 7 8 9 10 11 12
000
FTUS43 KFSD 310540
TAFHON
TAF
KHON 310540Z 3106/0106 12007KT P6SM SCT200
     FM311400 14013G18KT P6SM SCT030 OVC100
      TEMPO 3117/3121 -SHRA BKN030
     FM010200 14011KT P6SM OVC070=

USA.gov is the U.S. government's official web portal to all federal, state and local government web resources and services.